Time;durP1;ratioP1;P1;durP2;ratioP2;P2;SDS_P1;SDS_P2;PMS_P1;PMS_P2;Temp;Humidity;BMP_temperature;BMP_pressure;BME280_temperature;BME280_humidity;BME280_pressure;Samples;Min_cycle;Max_cycle;Signal;HPM_P1;HPM_P2
2023/04/19 00:02:27;;;;;;;24.10;15.85;;;10.50;99.90;;;;;;5138453;27;20260;-81
2023/04/19 00:04:55;;;;;;;20.05;13.88;;;10.40;99.90;;;;;;5137867;27;20446;-83
2023/04/19 00:07:22;;;;;;;18.00;13.52;;;10.60;99.90;;;;;;5134892;27;20267;-85
2023/04/19 00:09:51;;;;;;;23.33;13.48;;;10.40;99.90;;;;;;5139114;27;20231;-83
2023/04/19 00:12:18;;;;;;;18.23;12.75;;;10.30;99.90;;;;;;5131413;27;20201;-84
2023/04/19 00:14:45;;;;;;;21.95;14.55;;;10.20;99.90;;;;;;5140805;27;20493;-85
2023/04/19 00:17:13;;;;;;;20.40;12.95;;;10.10;99.90;;;;;;5112293;27;20223;-84
2023/04/19 00:19:43;;;;;;;23.02;14.90;;;10.00;99.90;;;;;;5130934;27;20193;-83
2023/04/19 00:22:10;;;;;;;25.13;15.40;;;10.00;99.90;;;;;;5112772;27;20256;-83
2023/04/19 00:24:37;;;;;;;15.63;13.60;;;9.80;99.90;;;;;;5130824;27;20225;-80
2023/04/19 00:27:04;;;;;;;23.88;15.00;;;9.80;99.90;;;;;;5122218;28;20554;-85
2023/04/19 00:29:32;;;;;;;17.65;14.05;;;9.70;99.90;;;;;;5115676;27;20220;-83
2023/04/19 00:31:59;;;;;;;17.20;13.73;;;9.60;99.90;;;;;;5115428;27;20298;-83
2023/04/19 00:34:29;;;;;;;19.20;14.55;;;9.50;99.90;;;;;;5128065;27;20291;-85
2023/04/19 00:36:56;;;;;;;20.30;15.05;;;9.50;99.90;;;;;;5136764;27;20207;-84
2023/04/19 00:39:29;;;;;;;17.65;12.85;;;9.40;99.90;;;;;;5125504;27;20213;-84
2023/04/19 00:41:56;;;;;;;14.82;11.73;;;9.40;99.90;;;;;;5127670;27;20215;-83
2023/04/19 00:44:23;;;;;;;20.23;14.32;;;9.30;99.90;;;;;;5131403;27;20223;-84
2023/04/19 00:46:50;;;;;;;18.00;14.00;;;9.20;99.90;;;;;;5139041;27;20203;-84
2023/04/19 00:49:17;;;;;;;16.38;11.80;;;9.20;99.90;;;;;;5133893;27;20205;-82
2023/04/19 00:51:46;;;;;;;13.82;11.45;;;9.20;99.90;;;;;;5124135;27;20207;-82
2023/04/19 00:54:14;;;;;;;17.58;14.38;;;9.30;99.90;;;;;;5137442;27;20217;-82
2023/04/19 00:56:43;;;;;;;14.48;11.57;;;9.40;99.90;;;;;;5135278;27;20207;-81
2023/04/19 00:59:11;;;;;;;15.10;12.50;;;9.50;99.90;;;;;;5134597;27;20206;-82
2023/04/19 01:01:38;;;;;;;13.30;11.65;;;9.50;99.90;;;;;;5137226;27;20214;-81
2023/04/19 01:04:07;;;;;;;16.52;11.30;;;9.50;99.90;;;;;;5134601;27;20235;-83
2023/04/19 01:06:38;;;;;;;12.43;11.10;;;9.40;99.90;;;;;;5121978;27;20202;-82
2023/04/19 01:09:05;;;;;;;14.90;11.43;;;9.40;99.90;;;;;;5129003;27;20207;-82
2023/04/19 01:11:32;;;;;;;14.98;11.68;;;9.30;99.90;;;;;;5138748;27;20249;-83
2023/04/19 01:14:00;;;;;;;16.52;11.88;;;9.30;99.90;;;;;;5133358;27;20210;-85
2023/04/19 01:16:28;;;;;;;11.50;10.18;;;9.20;99.90;;;;;;5122976;27;20680;-83
2023/04/19 01:18:55;;;;;;;15.73;12.88;;;9.30;99.90;;;;;;5127636;27;20468;-82
2023/04/19 01:21:23;;;;;;;13.68;12.27;;;9.20;99.90;;;;;;5141007;27;20549;-84
2023/04/19 01:23:51;;;;;;;15.77;12.55;;;9.20;99.90;;;;;;5115823;28;20250;-83
2023/04/19 01:26:18;;;;;;;18.92;13.45;;;9.20;99.90;;;;;;5129409;27;20227;-83
2023/04/19 01:28:45;;;;;;;16.60;11.98;;;9.10;99.90;;;;;;5134667;27;20248;-86
2023/04/19 01:31:12;;;;;;;15.45;12.07;;;9.10;99.90;;;;;;5129110;28;20210;-84
2023/04/19 01:33:41;;;;;;;14.02;10.95;;;9.10;99.90;;;;;;5116278;28;20410;-83
2023/04/19 01:36:12;;;;;;;14.82;12.63;;;9.10;99.90;;;;;;5133128;27;20194;-82
2023/04/19 01:38:39;;;;;;;14.73;10.65;;;9.10;99.90;;;;;;5136747;28;20212;-83
2023/04/19 01:41:06;;;;;;;16.27;10.63;;;9.10;99.90;;;;;;5150538;27;20199;-85
2023/04/19 01:43:34;;;;;;;10.90;9.57;;;9.10;99.90;;;;;;5138560;28;20199;-82
2023/04/19 01:46:01;;;;;;;12.68;9.40;;;9.00;99.90;;;;;;5118895;28;20197;-84
2023/04/19 01:48:28;;;;;;;12.77;10.07;;;9.00;99.90;;;;;;5124132;28;20386;-88
2023/04/19 01:50:56;;;;;;;13.07;10.30;;;9.00;99.90;;;;;;5125555;28;20272;-84
2023/04/19 01:53:23;;;;;;;17.02;11.00;;;9.00;99.90;;;;;;5129829;28;20236;-84
2023/04/19 01:55:50;;;;;;;16.38;9.95;;;9.00;99.90;;;;;;5127821;28;20269;-81
2023/04/19 01:58:17;;;;;;;13.25;8.95;;;8.80;99.90;;;;;;5127547;28;20210;-83
2023/04/19 02:00:45;;;;;;;13.45;9.85;;;8.80;99.90;;;;;;5134072;28;20233;-83
2023/04/19 02:03:11;;;;;;;13.10;8.68;;;8.90;99.90;;;;;;5108357;28;20265;-83
2023/04/19 02:05:44;;;;;;;10.50;9.05;;;8.90;99.90;;;;;;5126826;28;20236;-85
2023/04/19 02:08:11;;;;;;;13.02;8.80;;;8.80;99.90;;;;;;5128929;28;20220;-82
2023/04/19 02:10:39;;;;;;;7.65;6.70;;;8.80;99.90;;;;;;5106660;28;20213;-80
2023/04/19 02:13:07;;;;;;;11.98;8.98;;;8.80;99.90;;;;;;5122965;28;20240;-82
2023/04/19 02:15:38;;;;;;;9.77;7.68;;;8.80;99.90;;;;;;5114370;28;20204;-81
2023/04/19 02:18:05;;;;;;;10.10;9.05;;;8.70;99.90;;;;;;5128871;28;20283;-82
2023/04/19 02:20:36;;;;;;;13.73;8.65;;;8.60;99.90;;;;;;5108584;28;20207;-82
2023/04/19 02:23:03;;;;;;;11.35;7.85;;;8.60;99.90;;;;;;5122594;28;20252;-84
2023/04/19 02:25:32;;;;;;;11.75;9.70;;;8.60;99.90;;;;;;5121875;28;20254;-81
2023/04/19 02:27:59;;;;;;;12.90;8.68;;;8.50;99.90;;;;;;5138571;28;20234;-83
2023/04/19 02:30:26;;;;;;;13.25;7.88;;;8.50;99.90;;;;;;5136665;28;20207;-82
2023/04/19 02:32:55;;;;;;;8.45;6.88;;;8.40;99.90;;;;;;5119144;28;20228;-82
2023/04/19 02:35:21;;;;;;;8.55;5.70;;;8.40;99.90;;;;;;5136845;28;20224;-81
2023/04/19 02:37:49;;;;;;;13.20;6.55;;;8.40;99.90;;;;;;5130162;28;20264;-83
2023/04/19 02:40:15;;;;;;;7.95;6.20;;;8.30;99.90;;;;;;5138619;28;20206;-81
2023/04/19 02:42:45;;;;;;;8.60;6.13;;;8.30;99.90;;;;;;5139875;28;20242;-83
2023/04/19 02:45:12;;;;;;;8.55;6.05;;;8.30;99.90;;;;;;5124280;28;20233;-82
2023/04/19 02:47:39;;;;;;;8.43;6.53;;;8.20;99.90;;;;;;5134077;27;20243;-84
2023/04/19 02:50:10;;;;;;;6.85;6.13;;;8.30;99.90;;;;;;5137513;27;20206;-81
2023/04/19 02:52:41;;;;;;;6.35;5.55;;;8.20;99.90;;;;;;5129099;27;20201;-81
2023/04/19 02:55:11;;;;;;;5.90;5.30;;;8.20;99.90;;;;;;5130728;27;20801;-82
2023/04/19 02:57:41;;;;;;;5.88;5.15;;;8.10;99.90;;;;;;5132618;27;20208;-81
2023/04/19 03:00:11;;;;;;;6.30;5.63;;;8.10;99.90;;;;;;5136529;27;20209;-85
2023/04/19 03:02:38;;;;;;;8.52;6.53;;;8.10;99.90;;;;;;5108469;27;20205;-82
2023/04/19 03:05:06;;;;;;;6.20;5.57;;;8.00;99.90;;;;;;5137563;27;20222;-85
2023/04/19 03:07:35;;;;;;;7.32;5.60;;;8.00;99.90;;;;;;5124419;27;20198;-85
2023/04/19 03:10:02;;;;;;;6.57;4.18;;;8.00;99.90;;;;;;5126452;27;20458;-84
2023/04/19 03:12:29;;;;;;;10.30;6.55;;;7.90;99.90;;;;;;5129827;27;20242;-83
2023/04/19 03:14:57;;;;;;;7.50;5.82;;;7.90;99.90;;;;;;5126623;27;20205;-82
2023/04/19 03:17:25;;;;;;;5.88;4.85;;;7.80;99.90;;;;;;5125334;27;20228;-87
2023/04/19 03:19:55;;;;;;;7.30;5.20;;;7.80;99.90;;;;;;5133692;27;20205;-83
2023/04/19 03:22:22;;;;;;;5.85;4.70;;;7.90;99.90;;;;;;5129881;27;20253;-84
2023/04/19 03:24:49;;;;;;;5.18;4.50;;;7.80;99.90;;;;;;5132382;27;20226;-82
2023/04/19 03:27:16;;;;;;;8.20;5.55;;;7.80;99.90;;;;;;5128096;27;20218;-83
2023/04/19 03:29:43;;;;;;;6.93;5.07;;;7.80;99.90;;;;;;5129710;27;20221;-84
2023/04/19 03:32:13;;;;;;;8.68;5.00;;;7.80;99.90;;;;;;5131958;27;20324;-83
2023/04/19 03:34:40;;;;;;;6.72;5.97;;;7.90;99.90;;;;;;5127280;28;20216;-81
2023/04/19 03:37:07;;;;;;;6.70;5.20;;;7.90;99.90;;;;;;5126264;28;20244;-82
2023/04/19 03:39:34;;;;;;;8.07;6.68;;;7.90;99.90;;;;;;5152200;27;20358;-83
2023/04/19 03:42:08;;;;;;;10.45;6.47;;;7.80;99.90;;;;;;5145684;27;20200;-84
2023/04/19 03:44:35;;;;;;;6.28;5.07;;;7.90;99.90;;;;;;5149118;27;20216;-82
2023/04/19 03:47:03;;;;;;;7.00;5.10;;;7.80;99.90;;;;;;5144062;27;20194;-82
2023/04/19 03:49:30;;;;;;;7.80;5.28;;;7.90;99.90;;;;;;5127068;27;20217;-85
2023/04/19 03:51:59;;;;;;;5.80;5.30;;;8.00;99.90;;;;;;5131470;27;20181;-82
2023/04/19 03:54:26;;;;;;;10.60;5.00;;;7.70;99.90;;;;;;5125203;28;20194;-83
2023/04/19 03:56:52;;;;;;;8.02;5.88;;;7.50;99.90;;;;;;5148392;27;20196;-80
2023/04/19 03:59:23;;;;;;;5.25;4.75;;;7.40;99.90;;;;;;5153844;27;20223;-84
2023/04/19 04:01:51;;;;;;;14.10;6.28;;;7.40;99.90;;;;;;5152657;27;20208;-82
2023/04/19 04:04:19;;;;;;;7.68;4.45;;;7.40;99.90;;;;;;5151411;27;20263;-81
2023/04/19 04:06:47;;;;;;;5.95;3.97;;;7.40;99.90;;;;;;5144833;27;20565;-80
2023/04/19 04:09:16;;;;;;;9.65;4.90;;;7.40;99.90;;;;;;5134991;27;20206;-82
2023/04/19 04:11:45;;;;;;;6.15;4.70;;;7.30;99.90;;;;;;5131229;27;20299;-81
2023/04/19 04:14:14;;;;;;;7.25;4.38;;;7.20;99.90;;;;;;5120670;27;20242;-82
2023/04/19 04:16:41;;;;;;;7.75;4.38;;;7.40;99.90;;;;;;5134719;27;20207;-81
2023/04/19 04:19:08;;;;;;;14.13;5.13;;;6.70;99.90;;;;;;5121636;27;20205;-83
2023/04/19 04:21:36;;;;;;;11.80;5.65;;;6.20;99.90;;;;;;5132862;27;20205;-82
2023/04/19 04:24:04;;;;;;;8.00;5.25;;;5.80;99.90;;;;;;5131526;27;20281;-81
2023/04/19 04:26:32;;;;;;;5.60;4.93;;;5.50;99.90;;;;;;5128325;27;20210;-81
2023/04/19 04:29:02;;;;;;;8.82;5.50;;;5.30;99.90;;;;;;5113753;27;20234;-81
2023/04/19 04:31:30;;;;;;;11.10;5.85;;;5.20;99.90;;;;;;5122805;27;20193;-80
2023/04/19 04:33:57;;;;;;;12.15;6.22;;;5.10;99.90;;;;;;5102609;28;20201;-82
2023/04/19 04:36:25;;;;;;;8.15;5.95;;;5.10;99.90;;;;;;5105860;28;20220;-82
2023/04/19 04:38:52;;;;;;;12.02;6.22;;;4.90;99.90;;;;;;5108148;27;20253;-82
2023/04/19 04:41:19;;;;;;;8.68;6.68;;;4.90;99.90;;;;;;5127855;27;20512;-82
2023/04/19 04:43:50;;;;;;;8.00;5.95;;;4.90;99.90;;;;;;5133504;27;20435;-82
2023/04/19 04:46:34;;;;;;;10.20;6.50;;;4.90;99.90;;;;;;5134515;27;20219;-83
2023/04/19 04:49:02;;;;;;;9.00;5.50;;;5.00;99.90;;;;;;5121763;27;20253;-83
2023/04/19 04:51:28;;;;;;;14.07;7.00;;;4.90;99.90;;;;;;5131791;27;20216;-83
2023/04/19 04:53:56;;;;;;;9.88;6.50;;;4.80;99.90;;;;;;5128181;27;20225;-82
2023/04/19 04:56:24;;;;;;;7.93;5.85;;;4.80;99.90;;;;;;5125320;27;20685;-85
2023/04/19 04:58:51;;;;;;;11.25;7.10;;;4.70;99.90;;;;;;5135490;27;20196;-83
2023/04/19 05:01:19;;;;;;;9.70;7.45;;;4.80;99.90;;;;;;5116940;27;20221;-82
2023/04/19 05:03:49;;;;;;;12.57;7.82;;;4.80;99.90;;;;;;5116283;27;20204;-84
2023/04/19 05:06:16;;;;;;;8.60;7.75;;;4.80;99.90;;;;;;5123916;27;20564;-82
2023/04/19 05:08:43;;;;;;;11.70;8.40;;;5.00;99.90;;;;;;5133079;27;20411;-83
2023/04/19 05:11:10;;;;;;;10.10;7.65;;;5.10;99.90;;;;;;5130578;27;20474;-83
2023/04/19 05:13:37;;;;;;;10.38;7.70;;;5.20;99.90;;;;;;5127641;27;20216;-84
2023/04/19 05:16:07;;;;;;;9.68;7.15;;;5.30;99.90;;;;;;5137360;27;20199;-85
2023/04/19 05:18:34;;;;;;;14.55;8.75;;;5.40;99.90;;;;;;5128794;27;20226;-84
2023/04/19 05:21:07;;;;;;;9.10;6.88;;;5.20;99.90;;;;;;5132782;27;20198;-84
2023/04/19 05:23:36;;;;;;;8.32;6.80;;;5.10;99.90;;;;;;5131817;27;20305;-85
2023/04/19 05:26:04;;;;;;;7.80;6.13;;;5.10;99.90;;;;;;5132460;27;20232;-88
2023/04/19 05:28:31;;;;;;;12.93;6.55;;;5.10;99.90;;;;;;5129209;27;20265;-86
2023/04/19 05:30:58;;;;;;;8.65;6.00;;;5.00;99.90;;;;;;5121692;27;20300;-84
2023/04/19 05:33:25;;;;;;;6.90;5.35;;;5.10;99.90;;;;;;5124334;27;20210;-82
2023/04/19 05:35:51;;;;;;;11.07;5.47;;;5.20;99.90;;;;;;5132793;27;20204;-83
2023/04/19 05:38:18;;;;;;;5.05;4.55;;;5.20;99.90;;;;;;5139787;27;20504;-86
2023/04/19 05:40:45;;;;;;;7.30;5.07;;;5.30;99.90;;;;;;5138258;27;20208;-83
2023/04/19 05:43:12;;;;;;;6.63;5.60;;;5.30;99.90;;;;;;5129091;27;20663;-83
2023/04/19 05:45:38;;;;;;;6.60;4.90;;;5.50;99.90;;;;;;5132646;27;20239;-84
2023/04/19 05:48:06;;;;;;;12.25;5.57;;;5.60;99.90;;;;;;5130730;28;20211;-83
2023/04/19 05:50:35;;;;;;;11.55;7.55;;;5.80;99.90;;;;;;5134438;28;20197;-83
2023/04/19 05:53:04;;;;;;;9.70;6.28;;;6.00;99.90;;;;;;5129726;28;20202;-83
2023/04/19 05:55:31;;;;;;;8.98;6.05;;;6.20;99.90;;;;;;5137271;28;20267;-84
2023/04/19 05:57:59;;;;;;;9.52;5.68;;;6.20;99.90;;;;;;5116636;28;20182;-83
2023/04/19 06:00:27;;;;;;;8.30;4.90;;;6.30;99.90;;;;;;5149094;28;20192;-81
2023/04/19 06:02:53;;;;;;;6.65;4.72;;;6.20;99.90;;;;;;5152251;28;20196;-82
2023/04/19 06:05:22;;;;;;;8.48;6.93;;;6.20;99.90;;;;;;5132033;28;20229;-84
2023/04/19 06:07:49;;;;;;;10.15;5.75;;;6.00;99.90;;;;;;5103351;28;20240;-82
2023/04/19 06:10:27;;;;;;;7.53;5.30;;;6.20;99.90;;;;;;5120302;28;20207;-83
2023/04/19 06:13:14;;;;;;;9.68;6.10;;;6.10;99.90;;;;;;5133819;28;20197;-81
2023/04/19 06:15:42;;;;;;;6.55;5.80;;;6.00;99.90;;;;;;5123969;28;20272;-81
2023/04/19 06:18:10;;;;;;;5.75;5.15;;;6.00;99.90;;;;;;5108982;28;20205;-82
2023/04/19 06:20:45;;;;;;;9.35;5.10;;;6.00;99.90;;;;;;5125905;28;20779;-83
2023/04/19 06:23:13;;;;;;;5.25;4.75;;;6.10;99.90;;;;;;5122388;27;20275;-80
2023/04/19 06:25:40;;;;;;;5.60;4.25;;;6.40;99.90;;;;;;5127623;27;20232;-81
2023/04/19 06:28:07;;;;;;;6.70;5.60;;;6.80;99.90;;;;;;5126535;27;20234;-82
2023/04/19 06:30:41;;;;;;;6.82;4.68;;;7.40;99.90;;;;;;5127351;27;20200;-80
2023/04/19 06:33:08;;;;;;;8.65;4.68;;;8.30;99.90;;;;;;5127373;27;20205;-82
2023/04/19 06:35:35;;;;;;;4.68;4.18;;;8.60;99.90;;;;;;5138528;27;20206;-82
2023/04/19 06:38:02;;;;;;;7.43;4.78;;;8.90;99.90;;;;;;5125533;27;20202;-81
2023/04/19 06:40:29;;;;;;;14.50;4.53;;;9.30;99.90;;;;;;5131096;27;20208;-82
2023/04/19 06:42:56;;;;;;;4.53;4.00;;;9.70;99.90;;;;;;5132734;27;20206;-81
2023/04/19 06:45:23;;;;;;;4.65;4.18;;;9.50;99.90;;;;;;5136295;27;20221;-84
2023/04/19 06:47:50;;;;;;;6.72;4.18;;;8.80;99.90;;;;;;5141408;27;20201;-79
2023/04/19 06:50:17;;;;;;;6.50;3.63;;;9.40;99.90;;;;;;5121701;27;20241;-81
2023/04/19 06:52:44;;;;;;;7.97;7.18;;;9.70;99.90;;;;;;5137889;27;20265;-81
2023/04/19 06:55:11;;;;;;;5.32;4.82;;;9.70;99.90;;;;;;5132833;27;20218;-80
2023/04/19 06:57:38;;;;;;;5.72;5.13;;;9.70;99.90;;;;;;5135450;27;20219;-81
2023/04/19 07:00:05;;;;;;;5.03;3.40;;;9.20;99.90;;;;;;5130801;27;20222;-83
2023/04/19 07:02:32;;;;;;;10.63;4.05;;;8.40;99.90;;;;;;5141098;27;20201;-79
2023/04/19 07:05:02;;;;;;;5.25;3.63;;;8.10;99.90;;;;;;5130439;27;20206;-85
2023/04/19 07:07:29;;;;;;;5.13;3.70;;;8.00;99.90;;;;;;5116519;28;20217;-82
2023/04/19 07:09:56;;;;;;;9.55;4.45;;;8.30;99.90;;;;;;5132359;27;20194;-83
2023/04/19 07:12:24;;;;;;;4.47;3.42;;;8.50;99.90;;;;;;5131034;27;20223;-84
2023/04/19 07:14:55;;;;;;;5.47;4.50;;;8.40;99.90;;;;;;5138310;27;20255;-81
2023/04/19 07:17:22;;;;;;;6.10;4.10;;;8.30;99.90;;;;;;5132229;27;20235;-84
2023/04/19 07:19:52;;;;;;;4.90;4.40;;;8.40;99.90;;;;;;5139558;27;20232;-83
2023/04/19 07:22:22;;;;;;;5.28;4.32;;;9.30;99.90;;;;;;5124401;27;20249;-82
2023/04/19 07:24:50;;;;;;;7.47;4.50;;;10.90;99.90;;;;;;5135946;27;20210;-84
2023/04/19 07:27:21;;;;;;;4.80;4.30;;;10.70;99.90;;;;;;5114632;27;20204;-83
2023/04/19 07:29:49;;;;;;;7.25;4.20;;;11.70;99.90;;;;;;5128629;27;20206;-85
2023/04/19 07:32:17;;;;;;;11.77;5.18;;;13.10;99.90;;;;;;5134039;27;20201;-84
2023/04/19 07:34:45;;;;;;;8.05;4.72;;;14.40;99.90;;;;;;5126163;27;20247;-80
2023/04/19 07:37:13;;;;;;;6.25;5.65;;;14.90;99.90;;;;;;5140745;27;20205;-83
2023/04/19 07:39:40;;;;;;;6.43;3.58;;;15.00;99.90;;;;;;5119513;27;20223;-82
2023/04/19 07:42:07;;;;;;;5.30;3.83;;;13.80;99.90;;;;;;5115333;28;20246;-81
2023/04/19 07:44:34;;;;;;;7.35;4.50;;;12.70;99.90;;;;;;5132881;27;20224;-81
2023/04/19 07:47:00;;;;;;;9.20;4.50;;;11.80;99.90;;;;;;5111616;27;20244;-81
2023/04/19 07:49:32;;;;;;;5.75;4.85;;;12.10;99.90;;;;;;5120779;27;20265;-83
2023/04/19 07:52:02;;;;;;;7.32;4.50;;;12.30;99.90;;;;;;5127754;27;20438;-82
2023/04/19 07:54:31;;;;;;;12.77;4.65;;;11.10;99.90;;;;;;5133790;27;20629;-81
2023/04/19 07:56:58;;;;;;;6.40;4.63;;;10.70;99.90;;;;;;5128730;27;20450;-81
2023/04/19 07:59:24;;;;;;;7.70;5.15;;;10.60;99.90;;;;;;5121147;27;20208;-82
2023/04/19 08:01:52;;;;;;;5.10;4.70;;;10.70;99.90;;;;;;5137186;27;20604;-84
2023/04/19 08:04:19;;;;;;;4.47;4.07;;;11.70;99.90;;;;;;5126615;27;20254;-81
2023/04/19 08:06:47;;;;;;;10.57;5.60;;;12.70;99.90;;;;;;5135386;27;20451;-83
2023/04/19 08:09:16;;;;;;;7.07;4.45;;;12.70;99.90;;;;;;5127522;27;20208;-80
2023/04/19 08:11:43;;;;;;;6.75;4.68;;;12.90;99.90;;;;;;5131652;27;20486;-84
2023/04/19 08:14:10;;;;;;;7.07;3.95;;;14.60;99.90;;;;;;5118214;28;20451;-82
2023/04/19 08:16:56;;;;;;;7.85;4.70;;;14.80;99.90;;;;;;5129156;27;20643;-84
2023/04/19 08:19:43;;;;;;;10.20;5.30;;;13.60;99.90;;;;;;5128661;27;20363;-81
2023/04/19 08:22:10;;;;;;;7.13;4.45;;;11.40;99.90;;;;;;5130675;27;20427;-82
2023/04/19 08:24:37;;;;;;;4.50;4.10;;;10.50;99.90;;;;;;5126828;27;20223;-80
2023/04/19 08:27:04;;;;;;;4.88;4.32;;;10.10;99.90;;;;;;5126533;27;20265;-82
2023/04/19 08:29:32;;;;;;;6.25;4.28;;;10.90;99.90;;;;;;5140064;27;20201;-81
2023/04/19 08:32:00;;;;;;;5.72;4.65;;;12.00;99.90;;;;;;5137760;27;20213;-81
2023/04/19 08:34:27;;;;;;;6.03;5.40;;;12.80;99.90;;;;;;5123095;27;20231;-81
2023/04/19 08:36:54;;;;;;;5.80;5.15;;;12.20;99.90;;;;;;5101319;28;20205;-80
2023/04/19 08:39:31;;;;;;;5.75;4.50;;;11.40;99.90;;;;;;5122225;27;20203;-80
2023/04/19 08:42:09;;;;;;;8.60;4.90;;;10.20;99.90;;;;;;5109973;28;20341;-81
2023/04/19 08:44:59;;;;;;;7.57;5.45;;;9.50;99.90;;;;;;5121890;27;20496;-80
2023/04/19 08:47:34;;;;;;;15.45;7.63;;;9.10;99.90;;;;;;5120559;27;20242;-83
2023/04/19 08:50:15;;;;;;;8.70;6.25;;;8.90;99.90;;;;;;5130945;27;20198;-80
2023/04/19 08:53:00;;;;;;;9.55;6.60;;;8.20;99.90;;;;;;5129009;27;20221;-80
2023/04/19 08:55:48;;;;;;;10.02;6.40;;;7.90;99.90;;;;;;5117509;27;20323;-80
2023/04/19 08:58:35;;;;;;;10.38;7.53;;;7.70;99.90;;;;;;5118468;28;20205;-82
2023/04/19 09:01:22;;;;;;;6.93;6.25;;;7.60;99.90;;;;;;5112570;27;20370;-83
2023/04/19 09:04:04;;;;;;;11.70;7.50;;;7.50;99.90;;;;;;5135586;27;20200;-82
2023/04/19 09:06:51;;;;;;;12.80;7.75;;;7.60;99.90;;;;;;5108111;28;20221;-85
2023/04/19 09:09:26;;;;;;;9.07;7.30;;;7.70;99.90;;;;;;5122551;27;20753;-80
2023/04/19 09:11:57;;;;;;;9.75;6.80;;;8.00;99.90;;;;;;5137711;27;20208;-81
2023/04/19 09:14:26;;;;;;;10.57;7.75;;;8.10;99.90;;;;;;5121539;27;20215;-81
2023/04/19 09:16:53;;;;;;;10.90;7.75;;;8.10;99.90;;;;;;5120924;27;20259;-81
2023/04/19 09:19:21;;;;;;;6.97;6.20;;;8.20;99.90;;;;;;5133125;27;20255;-82
2023/04/19 09:21:52;;;;;;;11.40;6.38;;;8.50;99.90;;;;;;5138464;27;20540;-85
2023/04/19 09:24:37;;;;;;;8.15;6.30;;;8.50;99.90;;;;;;5127474;27;20222;-84
2023/04/19 09:27:27;;;;;;;6.80;5.68;;;8.20;99.90;;;;;;5126437;27;20262;-82
2023/04/19 09:29:56;;;;;;;7.03;6.35;;;7.80;99.90;;;;;;5137807;27;20200;-81
2023/04/19 09:32:23;;;;;;;11.52;7.88;;;7.90;99.90;;;;;;5138354;27;20207;-80
2023/04/19 09:34:56;;;;;;;8.15;7.35;;;8.20;99.90;;;;;;5137855;27;20226;-84
2023/04/19 09:37:23;;;;;;;10.25;6.47;;;8.30;99.90;;;;;;5105143;27;20204;-80
2023/04/19 09:40:23;;;;;;;12.60;7.97;;;8.20;99.90;;;;;;5133524;27;20269;-81
2023/04/19 09:42:50;;;;;;;8.93;5.88;;;8.40;99.90;;;;;;5111595;28;20202;-79
2023/04/19 09:45:20;;;;;;;8.60;6.47;;;8.40;99.90;;;;;;5120674;27;20205;-81
2023/04/19 09:48:02;;;;;;;13.50;7.53;;;8.40;99.90;;;;;;5117293;28;20201;-82
2023/04/19 09:50:29;;;;;;;9.85;6.50;;;8.50;99.90;;;;;;5119965;28;20274;-80
2023/04/19 09:52:58;;;;;;;6.13;5.53;;;8.60;99.90;;;;;;5128869;28;20265;-80
2023/04/19 09:55:27;;;;;;;8.52;6.10;;;8.80;99.90;;;;;;5126390;28;20213;-81
2023/04/19 09:57:59;;;;;;;8.70;6.55;;;9.00;99.90;;;;;;5131106;27;20210;-80
2023/04/19 10:00:26;;;;;;;8.65;6.75;;;9.10;99.90;;;;;;5127370;27;20193;-82
2023/04/19 10:03:08;;;;;;;8.15;6.90;;;8.70;99.90;;;;;;5125589;27;20556;-82
2023/04/19 10:05:41;;;;;;;11.90;7.50;;;8.40;99.90;;;;;;5117864;27;20432;-84
2023/04/19 10:08:13;;;;;;;12.95;7.82;;;8.20;99.90;;;;;;5135481;27;20242;-82
2023/04/19 10:10:41;;;;;;;7.45;6.35;;;8.10;99.90;;;;;;5130429;27;20231;-81
2023/04/19 10:13:12;;;;;;;8.55;7.07;;;8.50;99.90;;;;;;5142495;27;20203;-81
2023/04/19 10:15:43;;;;;;;13.75;7.47;;;7.90;99.90;;;;;;5134600;27;20210;-80
2023/04/19 10:18:19;;;;;;;9.60;6.80;;;7.90;99.90;;;;;;5134285;27;20201;-81
2023/04/19 10:20:55;;;;;;;11.18;6.82;;;8.20;99.90;;;;;;5134464;27;20223;-81
2023/04/19 10:23:22;;;;;;;10.18;6.60;;;8.60;99.90;;;;;;5127099;27;20554;-80
2023/04/19 10:26:00;;;;;;;15.07;7.88;;;8.60;99.90;;;;;;5135037;27;20200;-80
2023/04/19 10:28:28;;;;;;;9.32;7.50;;;8.50;99.90;;;;;;5125566;27;20287;-80
2023/04/19 10:31:01;;;;;;;11.40;7.63;;;8.50;99.90;;;;;;5125350;28;20195;-80
2023/04/19 10:33:34;;;;;;;15.50;7.10;;;8.80;99.90;;;;;;5137310;27;20295;-85
2023/04/19 10:36:01;;;;;;;8.18;6.68;;;9.10;99.90;;;;;;5127466;27;20215;-81
2023/04/19 10:38:55;;;;;;;10.32;7.18;;;9.60;99.90;;;;;;5139574;27;20197;-81
2023/04/19 10:41:22;;;;;;;8.25;6.45;;;9.90;99.90;;;;;;5142981;27;20239;-79
2023/04/19 10:43:55;;;;;;;10.18;6.60;;;10.00;99.90;;;;;;5146802;27;20187;-81
2023/04/19 10:46:24;;;;;;;10.65;6.88;;;10.20;99.90;;;;;;5134225;27;20222;-86
2023/04/19 10:48:59;;;;;;;10.07;6.80;;;9.90;99.90;;;;;;5135144;27;20222;-81
2023/04/19 10:51:38;;;;;;;9.88;8.52;;;9.90;99.90;;;;;;5124455;27;20248;-83
2023/04/19 10:54:07;;;;;;;9.98;6.60;;;10.00;99.90;;;;;;5124612;27;20195;-83
2023/04/19 10:56:39;;;;;;;15.55;7.22;;;10.00;99.90;;;;;;5122099;27;20279;-84
2023/04/19 10:59:20;;;;;;;12.20;7.50;;;9.90;99.90;;;;;;5125877;27;20266;-83
2023/04/19 11:01:56;;;;;;;11.00;8.30;;;9.60;99.90;;;;;;5133479;27;20216;-82
2023/04/19 11:04:31;;;;;;;9.15;7.10;;;9.50;99.90;;;;;;5127505;27;20503;-81
2023/04/19 11:07:03;;;;;;;9.82;7.68;;;9.30;99.90;;;;;;5128808;27;20227;-82
2023/04/19 11:09:37;;;;;;;11.65;7.45;;;9.00;99.90;;;;;;5129422;27;20195;-82
2023/04/19 11:12:09;;;;;;;9.45;8.25;;;8.90;99.90;;;;;;5136674;27;20220;-81
2023/04/19 11:14:47;;;;;;;10.38;7.13;;;8.90;99.90;;;;;;5132291;27;20269;-83
2023/04/19 11:17:17;;;;;;;13.95;7.78;;;8.60;99.90;;;;;;5127068;27;20212;-81
2023/04/19 11:19:57;;;;;;;9.95;7.57;;;8.60;99.90;;;;;;5110187;28;20245;-81
2023/04/19 11:22:33;;;;;;;9.80;7.15;;;8.50;99.90;;;;;;5134801;27;20242;-82
2023/04/19 11:25:13;;;;;;;9.98;8.00;;;8.40;99.90;;;;;;5129231;27;20198;-84
2023/04/19 11:27:41;;;;;;;11.80;8.13;;;8.30;99.90;;;;;;5136795;27;20497;-81
2023/04/19 11:30:31;;;;;;;9.38;7.85;;;8.20;99.90;;;;;;5114780;27;20277;-80
2023/04/19 11:32:58;;;;;;;14.45;9.48;;;8.20;99.90;;;;;;5122236;27;20298;-81
2023/04/19 11:35:27;;;;;;;9.98;8.02;;;8.10;99.90;;;;;;5128147;27;20205;-84
2023/04/19 11:37:55;;;;;;;13.70;9.98;;;7.90;99.90;;;;;;5129014;27;20230;-81
2023/04/19 11:40:24;;;;;;;11.35;8.63;;;7.90;99.90;;;;;;5103514;27;20451;-87
2023/04/19 11:43:03;;;;;;;15.57;9.45;;;7.70;99.90;;;;;;5126736;27;20205;-79
2023/04/19 11:45:36;;;;;;;9.05;7.85;;;7.60;99.90;;;;;;5114674;27;20275;-80
2023/04/19 11:48:11;;;;;;;11.90;9.00;;;7.70;99.90;;;;;;5116735;27;20227;-81
2023/04/19 11:50:43;;;;;;;13.27;9.80;;;7.70;99.90;;;;;;5139175;27;20205;-82
2023/04/19 11:53:23;;;;;;;11.93;9.63;;;7.90;99.90;;;;;;5136025;27;20201;-85
2023/04/19 11:55:51;;;;;;;8.60;7.63;;;7.80;99.90;;;;;;5122505;27;20673;-82
2023/04/19 11:58:56;;;;;;;11.30;8.98;;;7.80;99.90;;;;;;5139299;27;20231;-83
2023/04/19 12:01:24;;;;;;;10.20;8.73;;;7.50;99.90;;;;;;5086884;27;20233;-82
2023/04/19 12:03:53;;;;;;;11.27;8.20;;;7.30;99.90;;;;;;5135975;27;20192;-83
2023/04/19 12:06:26;;;;;;;9.60;8.50;;;7.20;99.90;;;;;;5130093;27;20255;-81
2023/04/19 12:08:54;;;;;;;10.68;8.15;;;7.20;99.90;;;;;;5136249;27;20212;-82
2023/04/19 12:11:25;;;;;;;9.95;8.95;;;7.20;99.90;;;;;;5125388;27;20195;-85
2023/04/19 12:14:11;;;;;;;10.57;9.07;;;7.00;99.90;;;;;;5134663;27;20223;-81
2023/04/19 12:17:01;;;;;;;11.15;9.57;;;6.90;99.90;;;;;;5123516;27;20206;-82
2023/04/19 12:19:34;;;;;;;17.65;9.57;;;6.90;99.90;;;;;;5130433;27;20235;-82
2023/04/19 12:22:22;;;;;;;11.30;9.23;;;7.00;99.90;;;;;;5125964;27;20204;-83
2023/04/19 12:24:50;;;;;;;14.45;10.68;;;7.00;99.90;;;;;;5139210;27;20299;-82
2023/04/19 12:27:17;;;;;;;11.88;10.63;;;7.10;99.90;;;;;;5140071;27;20233;-81
2023/04/19 12:29:45;;;;;;;22.63;14.48;;;7.20;99.90;;;;;;5127281;27;20201;-84
2023/04/19 12:32:14;;;;;;;14.20;11.40;;;7.30;99.90;;;;;;5129752;27;20198;-85
2023/04/19 12:34:41;;;;;;;12.65;11.30;;;7.10;99.90;;;;;;5134584;27;20316;-83
2023/04/19 12:37:08;;;;;;;21.77;13.57;;;7.10;99.90;;;;;;5121957;27;20205;-82
2023/04/19 12:39:37;;;;;;;13.02;11.20;;;7.00;99.90;;;;;;5123807;27;20202;-81
2023/04/19 12:42:05;;;;;;;11.77;10.60;;;7.10;99.90;;;;;;5101207;28;20206;-82
2023/04/19 12:44:33;;;;;;;13.32;11.27;;;7.10;99.90;;;;;;5089389;28;20235;-82
2023/04/19 12:47:00;;;;;;;13.85;9.88;;;7.10;99.90;;;;;;5125441;27;20278;-83
2023/04/19 12:49:27;;;;;;;13.63;11.88;;;7.00;99.90;;;;;;5123610;27;20268;-84
2023/04/19 12:51:54;;;;;;;13.30;9.02;;;6.90;99.90;;;;;;5106692;28;20247;-82
2023/04/19 12:54:22;;;;;;;12.45;10.35;;;6.80;99.90;;;;;;5112216;28;20198;-86
2023/04/19 12:56:50;;;;;;;9.82;8.38;;;6.80;99.90;;;;;;5133931;27;20284;-83
2023/04/19 12:59:16;;;;;;;10.20;9.18;;;6.70;99.90;;;;;;5137646;27;20207;-81
2023/04/19 13:01:44;;;;;;;12.57;10.73;;;6.60;99.90;;;;;;5120756;28;20273;-81
2023/04/19 13:04:11;;;;;;;12.60;9.30;;;6.70;99.90;;;;;;5135692;27;20209;-82